BTK7061 WIHH-WIBB
Flight info
| Callsign | BTK7061 |
|---|---|
| Flight time | 1h 27m |
| Altitude | 38000 |
| Route | DOLTA A585 JATAM |
| Aircraft | A320/M-SDE3FGHIRWY/LB1 |
Departure
| Time | 2026-04-28 07:17 |
|---|---|
| Airport | Halim Perdanakusuma International Airport (WIHH) |
Arrival
| Time | 2026-04-28 08:44 |
|---|---|
| Airport | Sultan Syarif Kasim II International Airport / Roesmin Nurjadin AFB (WIBB) |
| Time | Latitude | Longitude | Altitude | Speed | Heading |
|---|---|---|---|---|---|
| 2026-04-28 06:56 | -6.26628 | 106.88570 | 95 ft | 0 kts | 335° |
| 2026-04-28 07:08 | -6.26643 | 106.88577 | 95 ft | 3 kts | 335° |
| 2026-04-28 07:09 | -6.26662 | 106.88586 | 95 ft | 3 kts | 334° |
| 2026-04-28 07:09 | -6.26672 | 106.88591 | 95 ft | 1 kts | 298° |
| 2026-04-28 07:09 | -6.26675 | 106.88599 | 96 ft | 2 kts | 258° |
| 2026-04-28 07:09 | -6.26672 | 106.88610 | 97 ft | 1 kts | 248° |
| 2026-04-28 07:10 | -6.26669 | 106.88618 | 95 ft | 1 kts | 245° |
| 2026-04-28 07:10 | -6.26666 | 106.88625 | 97 ft | 1 kts | 244° |
| 2026-04-28 07:10 | -6.26665 | 106.88628 | 96 ft | 0 kts | 244° |
| 2026-04-28 07:12 | -6.26667 | 106.88622 | 97 ft | 6 kts | 245° |
| 2026-04-28 07:12 | -6.26688 | 106.88578 | 95 ft | 7 kts | 245° |
| 2026-04-28 07:12 | -6.26706 | 106.88538 | 95 ft | 7 kts | 245° |
| 2026-04-28 07:13 | -6.26727 | 106.88494 | 95 ft | 7 kts | 238° |
| 2026-04-28 07:13 | -6.26779 | 106.88488 | 94 ft | 10 kts | 162° |
| 2026-04-28 07:13 | -6.26841 | 106.88515 | 94 ft | 9 kts | 156° |
| 2026-04-28 07:13 | -6.26903 | 106.88533 | 93 ft | 9 kts | 181° |
| 2026-04-28 07:14 | -6.26948 | 106.88489 | 93 ft | 11 kts | 245° |
| 2026-04-28 07:14 | -6.26980 | 106.88421 | 93 ft | 12 kts | 245° |
| 2026-04-28 07:14 | -6.27015 | 106.88345 | 92 ft | 11 kts | 245° |
| 2026-04-28 07:14 | -6.27058 | 106.88252 | 93 ft | 17 kts | 245° |
| 2026-04-28 07:15 | -6.27117 | 106.88122 | 94 ft | 22 kts | 245° |
| 2026-04-28 07:15 | -6.27150 | 106.87987 | 95 ft | 19 kts | 259° |
| 2026-04-28 07:15 | -6.27192 | 106.87891 | 96 ft | 10 kts | 220° |
| 2026-04-28 07:15 | -6.27219 | 106.87904 | 98 ft | 4 kts | 82° |
| 2026-04-28 07:16 | -6.27212 | 106.87920 | 96 ft | 0 kts | 63° |
| 2026-04-28 07:16 | -6.27193 | 106.87958 | 96 ft | 30 kts | 64° |
| 2026-04-28 07:16 | -6.26991 | 106.88394 | 94 ft | 103 kts | 65° |
| 2026-04-28 07:16 | -6.26608 | 106.89228 | 99 ft | 157 kts | 66° |
| 2026-04-28 07:17 | -6.26113 | 106.90324 | 410 ft | 178 kts | 64° |
| 2026-04-28 07:17 | -6.25603 | 106.91472 | 1042 ft | 182 kts | 63° |
| 2026-04-28 07:17 | -6.25293 | 106.92706 | 1683 ft | 193 kts | 89° |
| 2026-04-28 07:17 | -6.25736 | 106.94068 | 1992 ft | 217 kts | 120° |
| 2026-04-28 07:18 | -6.26615 | 106.95379 | 2225 ft | 242 kts | 124° |
| 2026-04-28 07:18 | -6.27652 | 106.96818 | 2608 ft | 266 kts | 125° |
| 2026-04-28 07:18 | -6.28754 | 106.98373 | 3306 ft | 276 kts | 126° |
| 2026-04-28 07:18 | -6.29849 | 106.99974 | 4322 ft | 275 kts | 125° |
| 2026-04-28 07:19 | -6.31053 | 107.01471 | 5191 ft | 277 kts | 141° |
| 2026-04-28 07:19 | -6.32719 | 107.02382 | 5972 ft | 280 kts | 165° |
| 2026-04-28 07:19 | -6.34675 | 107.02510 | 6799 ft | 281 kts | 190° |
| 2026-04-28 07:19 | -6.36441 | 107.01843 | 7592 ft | 283 kts | 213° |
| 2026-04-28 07:20 | -6.37827 | 107.00438 | 8377 ft | 288 kts | 238° |
| 2026-04-28 07:20 | -6.38492 | 106.98539 | 9143 ft | 293 kts | 263° |
| 2026-04-28 07:20 | -6.38623 | 106.96481 | 9909 ft | 297 kts | 266° |
| 2026-04-28 07:20 | -6.38736 | 106.94369 | 10384 ft | 313 kts | 266° |
| 2026-04-28 07:21 | -6.38863 | 106.92110 | 10572 ft | 336 kts | 265° |
| 2026-04-28 07:21 | -6.39003 | 106.89697 | 10888 ft | 352 kts | 265° |
| 2026-04-28 07:21 | -6.39149 | 106.87216 | 11483 ft | 359 kts | 265° |
| 2026-04-28 07:22 | -6.39447 | 106.82146 | 12727 ft | 368 kts | 265° |
| 2026-04-28 07:22 | -6.39598 | 106.79562 | 13329 ft | 372 kts | 266° |
| 2026-04-28 07:22 | -6.39675 | 106.76951 | 13935 ft | 376 kts | 268° |
| 2026-04-28 07:22 | -6.39645 | 106.74309 | 14539 ft | 380 kts | 273° |
| 2026-04-28 07:23 | -6.39087 | 106.71705 | 15092 ft | 385 kts | 291° |
| 2026-04-28 07:23 | -6.37736 | 106.69378 | 15657 ft | 389 kts | 309° |
| 2026-04-28 07:23 | -6.35931 | 106.67340 | 16212 ft | 392 kts | 312° |
| 2026-04-28 07:23 | -6.34081 | 106.65301 | 16742 ft | 396 kts | 313° |
| 2026-04-28 07:24 | -6.32210 | 106.63255 | 17273 ft | 399 kts | 313° |
| 2026-04-28 07:24 | -6.30322 | 106.61192 | 17788 ft | 403 kts | 313° |
| 2026-04-28 07:24 | -6.28448 | 106.59139 | 18274 ft | 406 kts | 313° |
| 2026-04-28 07:24 | -6.26532 | 106.57036 | 18780 ft | 409 kts | 313° |
| 2026-04-28 07:25 | -6.24612 | 106.54915 | 19272 ft | 412 kts | 312° |
| 2026-04-28 07:25 | -6.22717 | 106.52743 | 19769 ft | 414 kts | 311° |
| 2026-04-28 07:25 | -6.20841 | 106.50530 | 20251 ft | 417 kts | 310° |
| 2026-04-28 07:25 | -6.18970 | 106.48295 | 20722 ft | 419 kts | 310° |
| 2026-04-28 07:26 | -6.17089 | 106.46043 | 21162 ft | 422 kts | 310° |
| 2026-04-28 07:26 | -6.15196 | 106.43784 | 21620 ft | 424 kts | 310° |
| 2026-04-28 07:26 | -6.13278 | 106.41514 | 22028 ft | 427 kts | 310° |
| 2026-04-28 07:26 | -6.11347 | 106.39241 | 22436 ft | 429 kts | 310° |
| 2026-04-28 07:27 | -6.09321 | 106.37151 | 22820 ft | 431 kts | 320° |
| 2026-04-28 07:27 | -6.06884 | 106.35376 | 23201 ft | 434 kts | 330° |
| 2026-04-28 07:27 | -6.04210 | 106.33965 | 23577 ft | 435 kts | 333° |
| 2026-04-28 07:27 | -6.01501 | 106.32580 | 23957 ft | 438 kts | 333° |
| 2026-04-28 07:28 | -5.98786 | 106.31179 | 24332 ft | 440 kts | 333° |
| 2026-04-28 07:28 | -5.96062 | 106.29764 | 24684 ft | 442 kts | 333° |
| 2026-04-28 07:28 | -5.93324 | 106.28339 | 25018 ft | 444 kts | 333° |
| 2026-04-28 07:28 | -5.90571 | 106.26909 | 25337 ft | 447 kts | 333° |
| 2026-04-28 07:29 | -5.87802 | 106.25473 | 25666 ft | 449 kts | 333° |
| 2026-04-28 07:29 | -5.85058 | 106.24053 | 25969 ft | 451 kts | 333° |
| 2026-04-28 07:29 | -5.82259 | 106.22609 | 26278 ft | 453 kts | 333° |
| 2026-04-28 07:29 | -5.79451 | 106.21160 | 26571 ft | 455 kts | 333° |
| 2026-04-28 07:30 | -5.76626 | 106.19703 | 26858 ft | 457 kts | 333° |
| 2026-04-28 07:30 | -5.73792 | 106.18243 | 27150 ft | 459 kts | 334° |
| 2026-04-28 07:30 | -5.70956 | 106.16783 | 27568 ft | 457 kts | 334° |
| 2026-04-28 07:30 | -5.68124 | 106.15323 | 27912 ft | 458 kts | 334° |
| 2026-04-28 07:31 | -5.65285 | 106.13859 | 28191 ft | 459 kts | 334° |
| 2026-04-28 07:31 | -5.62439 | 106.12390 | 28460 ft | 461 kts | 334° |
| 2026-04-28 07:31 | -5.59578 | 106.10911 | 28715 ft | 463 kts | 334° |
| 2026-04-28 07:31 | -5.56711 | 106.09429 | 28965 ft | 464 kts | 334° |
| 2026-04-28 07:32 | -5.53835 | 106.07944 | 29193 ft | 466 kts | 334° |
| 2026-04-28 07:32 | -5.50948 | 106.06454 | 29451 ft | 467 kts | 334° |
| 2026-04-28 07:32 | -5.48060 | 106.04966 | 29712 ft | 468 kts | 334° |
| 2026-04-28 07:32 | -5.45160 | 106.03476 | 29951 ft | 469 kts | 334° |
| 2026-04-28 07:33 | -5.42208 | 106.02070 | 30179 ft | 470 kts | 339° |
| 2026-04-28 07:33 | -5.39114 | 106.01018 | 30392 ft | 471 kts | 343° |
| 2026-04-28 07:33 | -5.36000 | 106.00017 | 30705 ft | 469 kts | 343° |
| 2026-04-28 07:33 | -5.32892 | 105.99019 | 31014 ft | 469 kts | 343° |
| 2026-04-28 07:34 | -5.29789 | 105.98021 | 31317 ft | 468 kts | 343° |
| 2026-04-28 07:34 | -5.26687 | 105.97023 | 31610 ft | 467 kts | 343° |
| 2026-04-28 07:34 | -5.23594 | 105.96029 | 31899 ft | 467 kts | 343° |
| 2026-04-28 07:34 | -5.20497 | 105.95032 | 32184 ft | 467 kts | 343° |
| 2026-04-28 07:35 | -5.17407 | 105.94038 | 32482 ft | 466 kts | 343° |
| 2026-04-28 07:35 | -5.14320 | 105.93041 | 32752 ft | 466 kts | 342° |
| 2026-04-28 07:35 | -5.11334 | 105.91773 | 33015 ft | 468 kts | 334° |
| 2026-04-28 07:35 | -5.08493 | 105.90165 | 33276 ft | 469 kts | 332° |
| 2026-04-28 07:36 | -5.05659 | 105.88542 | 33544 ft | 469 kts | 332° |
| 2026-04-28 07:36 | -5.02827 | 105.86919 | 33794 ft | 469 kts | 332° |
| 2026-04-28 07:36 | -4.99993 | 105.85300 | 34045 ft | 469 kts | 332° |
| 2026-04-28 07:36 | -4.97148 | 105.83679 | 34284 ft | 470 kts | 332° |
| 2026-04-28 07:37 | -4.95269 | 105.82611 | 34430 ft | 470 kts | 332° |
| 2026-04-28 07:37 | -4.91467 | 105.80452 | 34789 ft | 469 kts | 332° |
| 2026-04-28 07:37 | -4.89589 | 105.79387 | 34955 ft | 468 kts | 332° |
| 2026-04-28 07:37 | -4.85800 | 105.77236 | 35284 ft | 468 kts | 332° |
| 2026-04-28 07:38 | -4.83926 | 105.76169 | 35418 ft | 468 kts | 332° |
| 2026-04-28 07:38 | -4.81098 | 105.74560 | 35646 ft | 467 kts | 332° |
| 2026-04-28 07:38 | -4.78274 | 105.72952 | 35844 ft | 467 kts | 332° |
| 2026-04-28 07:38 | -4.75454 | 105.71342 | 36065 ft | 467 kts | 332° |
| 2026-04-28 07:39 | -4.72631 | 105.69732 | 36264 ft | 466 kts | 332° |
| 2026-04-28 07:39 | -4.69813 | 105.68127 | 36448 ft | 466 kts | 332° |
| 2026-04-28 07:39 | -4.66994 | 105.66523 | 36619 ft | 466 kts | 332° |
| 2026-04-28 07:39 | -4.64173 | 105.64919 | 36783 ft | 466 kts | 332° |
| 2026-04-28 07:40 | -4.61349 | 105.63316 | 36937 ft | 466 kts | 332° |
| 2026-04-28 07:40 | -4.58529 | 105.61715 | 37083 ft | 466 kts | 332° |
| 2026-04-28 07:40 | -4.55704 | 105.60110 | 37222 ft | 466 kts | 332° |
| 2026-04-28 07:40 | -4.52883 | 105.58505 | 37363 ft | 467 kts | 332° |
| 2026-04-28 07:41 | -4.50058 | 105.56898 | 37495 ft | 467 kts | 332° |
| 2026-04-28 07:41 | -4.47237 | 105.55292 | 37621 ft | 467 kts | 332° |
| 2026-04-28 07:41 | -4.44418 | 105.53688 | 37776 ft | 466 kts | 332° |
| 2026-04-28 07:41 | -4.41596 | 105.52082 | 37837 ft | 467 kts | 332° |
| 2026-04-28 07:42 | -4.35935 | 105.48864 | 37837 ft | 468 kts | 332° |
| 2026-04-28 07:42 | -4.30310 | 105.45668 | 37838 ft | 468 kts | 332° |
| 2026-04-28 07:43 | -4.24642 | 105.42451 | 37838 ft | 468 kts | 332° |
| 2026-04-28 07:43 | -4.18978 | 105.39234 | 37838 ft | 468 kts | 332° |
| 2026-04-28 07:44 | -4.13312 | 105.36011 | 37841 ft | 469 kts | 332° |
| 2026-04-28 07:44 | -4.07633 | 105.32780 | 37848 ft | 469 kts | 332° |
| 2026-04-28 07:45 | -4.01952 | 105.29557 | 37853 ft | 470 kts | 332° |
| 2026-04-28 07:45 | -3.96255 | 105.26326 | 37859 ft | 470 kts | 332° |
| 2026-04-28 07:46 | -3.90565 | 105.23094 | 37859 ft | 470 kts | 332° |
| 2026-04-28 07:46 | -3.84862 | 105.19877 | 37858 ft | 470 kts | 332° |
| 2026-04-28 07:47 | -3.79164 | 105.16674 | 37781 ft | 468 kts | 332° |
| 2026-04-28 07:47 | -3.73495 | 105.13487 | 37774 ft | 467 kts | 332° |
| 2026-04-28 07:48 | -3.67826 | 105.10302 | 37776 ft | 468 kts | 332° |
| 2026-04-28 07:48 | -3.62144 | 105.07103 | 37780 ft | 468 kts | 332° |
| 2026-04-28 07:49 | -3.56466 | 105.03906 | 37783 ft | 468 kts | 332° |
| 2026-04-28 07:49 | -3.50782 | 105.00707 | 37786 ft | 469 kts | 332° |
| 2026-04-28 07:50 | -3.45097 | 104.97506 | 37788 ft | 469 kts | 332° |
| 2026-04-28 07:50 | -3.39411 | 104.94311 | 37790 ft | 469 kts | 332° |
| 2026-04-28 07:51 | -3.33761 | 104.91140 | 37792 ft | 469 kts | 332° |
| 2026-04-28 07:51 | -3.28066 | 104.87933 | 37795 ft | 469 kts | 332° |
| 2026-04-28 07:52 | -3.22382 | 104.84729 | 37789 ft | 470 kts | 331° |
| 2026-04-28 07:52 | -3.16664 | 104.81517 | 37780 ft | 471 kts | 331° |
| 2026-04-28 07:53 | -3.10934 | 104.78298 | 37782 ft | 473 kts | 331° |
| 2026-04-28 07:53 | -3.05200 | 104.75072 | 37786 ft | 473 kts | 331° |
| 2026-04-28 07:54 | -2.99454 | 104.71840 | 37794 ft | 474 kts | 331° |
| 2026-04-28 07:54 | -2.93703 | 104.68606 | 37798 ft | 474 kts | 331° |
| 2026-04-28 07:55 | -2.88024 | 104.65242 | 37801 ft | 475 kts | 323° |
| 2026-04-28 07:55 | -2.83186 | 104.60766 | 37798 ft | 474 kts | 316° |
| 2026-04-28 07:56 | -2.78466 | 104.56150 | 37800 ft | 475 kts | 316° |
| 2026-04-28 07:56 | -2.73732 | 104.51546 | 37798 ft | 475 kts | 316° |
| 2026-04-28 07:57 | -2.68998 | 104.46941 | 37799 ft | 475 kts | 316° |
| 2026-04-28 07:57 | -2.64267 | 104.42330 | 37798 ft | 475 kts | 315° |
| 2026-04-28 07:58 | -2.59537 | 104.37716 | 37799 ft | 475 kts | 315° |
| 2026-04-28 07:58 | -2.54806 | 104.33108 | 37799 ft | 475 kts | 315° |
| 2026-04-28 07:59 | -2.50103 | 104.28522 | 37800 ft | 475 kts | 315° |
| 2026-04-28 07:59 | -2.45369 | 104.23910 | 37801 ft | 475 kts | 315° |
| 2026-04-28 08:00 | -2.40633 | 104.19292 | 37802 ft | 476 kts | 315° |
| 2026-04-28 08:00 | -2.35894 | 104.14672 | 37802 ft | 475 kts | 315° |
| 2026-04-28 08:01 | -2.31158 | 104.10062 | 37800 ft | 475 kts | 316° |
| 2026-04-28 08:01 | -2.26420 | 104.05449 | 37801 ft | 476 kts | 315° |
| 2026-04-28 08:02 | -2.21684 | 104.00831 | 37801 ft | 475 kts | 315° |
| 2026-04-28 08:02 | -2.16948 | 103.96217 | 37801 ft | 475 kts | 315° |
| 2026-04-28 08:03 | -2.12210 | 103.91609 | 37801 ft | 475 kts | 315° |
| 2026-04-28 08:03 | -2.07472 | 103.86992 | 37802 ft | 476 kts | 315° |
| 2026-04-28 08:04 | -2.02733 | 103.82374 | 37803 ft | 476 kts | 315° |
| 2026-04-28 08:04 | -1.97990 | 103.77760 | 37803 ft | 476 kts | 315° |
| 2026-04-28 08:05 | -1.93248 | 103.73147 | 37803 ft | 476 kts | 315° |
| 2026-04-28 08:05 | -1.88514 | 103.68534 | 37802 ft | 475 kts | 315° |
| 2026-04-28 08:06 | -1.83774 | 103.63921 | 37802 ft | 476 kts | 315° |
| 2026-04-28 08:06 | -1.79033 | 103.59303 | 37802 ft | 476 kts | 315° |
| 2026-04-28 08:07 | -1.74294 | 103.54690 | 37802 ft | 476 kts | 316° |
| 2026-04-28 08:07 | -1.69551 | 103.50079 | 37803 ft | 475 kts | 316° |
| 2026-04-28 08:08 | -1.64813 | 103.45471 | 37802 ft | 475 kts | 316° |
| 2026-04-28 08:08 | -1.60080 | 103.40868 | 37801 ft | 475 kts | 316° |
| 2026-04-28 08:09 | -1.55346 | 103.36266 | 37800 ft | 475 kts | 316° |
| 2026-04-28 08:09 | -1.50612 | 103.31661 | 37798 ft | 475 kts | 316° |
| 2026-04-28 08:10 | -1.45883 | 103.27061 | 37798 ft | 475 kts | 316° |
| 2026-04-28 08:10 | -1.41183 | 103.22488 | 37797 ft | 475 kts | 316° |
| 2026-04-28 08:11 | -1.36452 | 103.17875 | 37798 ft | 475 kts | 316° |
| 2026-04-28 08:11 | -1.31717 | 103.13270 | 37799 ft | 475 kts | 316° |
| 2026-04-28 08:12 | -1.26982 | 103.08662 | 37801 ft | 475 kts | 316° |
| 2026-04-28 08:12 | -1.22248 | 103.04054 | 37801 ft | 475 kts | 316° |
| 2026-04-28 08:13 | -1.17507 | 102.99450 | 37800 ft | 475 kts | 316° |
| 2026-04-28 08:13 | -1.12764 | 102.94844 | 37802 ft | 475 kts | 316° |
| 2026-04-28 08:14 | -1.08027 | 102.90233 | 37799 ft | 476 kts | 316° |
| 2026-04-28 08:14 | -1.03281 | 102.85619 | 37798 ft | 476 kts | 316° |
| 2026-04-28 08:15 | -0.98540 | 102.81018 | 37801 ft | 476 kts | 316° |
| 2026-04-28 08:15 | -0.93790 | 102.76409 | 37802 ft | 476 kts | 316° |
| 2026-04-28 08:16 | -0.89041 | 102.71802 | 37800 ft | 476 kts | 316° |
| 2026-04-28 08:16 | -0.84299 | 102.67195 | 37801 ft | 476 kts | 316° |
| 2026-04-28 08:17 | -0.79558 | 102.62588 | 37801 ft | 475 kts | 317° |
| 2026-04-28 08:17 | -0.74813 | 102.57980 | 37800 ft | 476 kts | 317° |
| 2026-04-28 08:18 | -0.70064 | 102.53377 | 37801 ft | 476 kts | 317° |
| 2026-04-28 08:18 | -0.67687 | 102.51077 | 37616 ft | 476 kts | 317° |
| 2026-04-28 08:18 | -0.65313 | 102.48773 | 37366 ft | 475 kts | 317° |
| 2026-04-28 08:19 | -0.62949 | 102.46472 | 37117 ft | 475 kts | 317° |
| 2026-04-28 08:19 | -0.60577 | 102.44171 | 36866 ft | 475 kts | 317° |
| 2026-04-28 08:19 | -0.58205 | 102.41871 | 36618 ft | 475 kts | 317° |
| 2026-04-28 08:19 | -0.55833 | 102.39570 | 36369 ft | 476 kts | 317° |
| 2026-04-28 08:20 | -0.53454 | 102.37260 | 36120 ft | 477 kts | 317° |
| 2026-04-28 08:20 | -0.51075 | 102.34952 | 35606 ft | 479 kts | 317° |
| 2026-04-28 08:20 | -0.48671 | 102.32622 | 34648 ft | 484 kts | 317° |
| 2026-04-28 08:20 | -0.46240 | 102.30268 | 33719 ft | 488 kts | 316° |
| 2026-04-28 08:21 | -0.43793 | 102.27896 | 32745 ft | 492 kts | 316° |
| 2026-04-28 08:21 | -0.41323 | 102.25500 | 31622 ft | 499 kts | 316° |
| 2026-04-28 08:21 | -0.38823 | 102.23072 | 30686 ft | 501 kts | 317° |
| 2026-04-28 08:21 | -0.36348 | 102.20665 | 30072 ft | 494 kts | 317° |
| 2026-04-28 08:22 | -0.33896 | 102.18279 | 29343 ft | 490 kts | 317° |
| 2026-04-28 08:22 | -0.31466 | 102.15916 | 28636 ft | 485 kts | 317° |
| 2026-04-28 08:22 | -0.29060 | 102.13580 | 27933 ft | 480 kts | 317° |
| 2026-04-28 08:22 | -0.26706 | 102.11301 | 27252 ft | 475 kts | 317° |
| 2026-04-28 08:23 | -0.24313 | 102.08988 | 26563 ft | 470 kts | 317° |
| 2026-04-28 08:23 | -0.21977 | 102.06731 | 25889 ft | 465 kts | 317° |
| 2026-04-28 08:23 | -0.19665 | 102.04494 | 25229 ft | 461 kts | 317° |
| 2026-04-28 08:23 | -0.18147 | 102.03024 | 24798 ft | 457 kts | 317° |
| 2026-04-28 08:24 | -0.15115 | 102.00089 | 23949 ft | 450 kts | 317° |
| 2026-04-28 08:24 | -0.12905 | 101.97950 | 23343 ft | 445 kts | 317° |
| 2026-04-28 08:24 | -0.11408 | 101.96502 | 22952 ft | 442 kts | 317° |
| 2026-04-28 08:24 | -0.08509 | 101.93696 | 22196 ft | 435 kts | 317° |
| 2026-04-28 08:25 | -0.06352 | 101.91606 | 21668 ft | 429 kts | 317° |
| 2026-04-28 08:25 | -0.04223 | 101.89543 | 21138 ft | 424 kts | 317° |
| 2026-04-28 08:25 | -0.02113 | 101.87501 | 20620 ft | 420 kts | 317° |
| 2026-04-28 08:26 | 0.01370 | 101.84126 | 19729 ft | 413 kts | 317° |
| 2026-04-28 08:26 | 0.03419 | 101.82142 | 19207 ft | 409 kts | 317° |
| 2026-04-28 08:26 | 0.05461 | 101.80165 | 18660 ft | 407 kts | 317° |
| 2026-04-28 08:26 | 0.07484 | 101.78204 | 18115 ft | 404 kts | 317° |
| 2026-04-28 08:27 | 0.09566 | 101.76392 | 17565 ft | 401 kts | 326° |
| 2026-04-28 08:27 | 0.11884 | 101.74876 | 17016 ft | 397 kts | 330° |
| 2026-04-28 08:27 | 0.14205 | 101.73392 | 16465 ft | 396 kts | 329° |
| 2026-04-28 08:27 | 0.16521 | 101.71913 | 15901 ft | 394 kts | 329° |
| 2026-04-28 08:28 | 0.18825 | 101.70440 | 15362 ft | 392 kts | 329° |
| 2026-04-28 08:28 | 0.21113 | 101.68975 | 14814 ft | 390 kts | 329° |
| 2026-04-28 08:28 | 0.23388 | 101.67518 | 14275 ft | 388 kts | 329° |
| 2026-04-28 08:28 | 0.25655 | 101.66070 | 13716 ft | 385 kts | 329° |
| 2026-04-28 08:29 | 0.27905 | 101.64631 | 13173 ft | 383 kts | 329° |
| 2026-04-28 08:29 | 0.30143 | 101.63197 | 12611 ft | 381 kts | 329° |
| 2026-04-28 08:29 | 0.32367 | 101.61773 | 12035 ft | 378 kts | 329° |
| 2026-04-28 08:29 | 0.34576 | 101.60362 | 11475 ft | 376 kts | 329° |
| 2026-04-28 08:30 | 0.36785 | 101.58996 | 10891 ft | 372 kts | 334° |
| 2026-04-28 08:30 | 0.39169 | 101.58067 | 10323 ft | 365 kts | 348° |
| 2026-04-28 08:30 | 0.41626 | 101.57738 | 10121 ft | 348 kts | 0° |
| 2026-04-28 08:30 | 0.44000 | 101.57692 | 9992 ft | 334 kts | 1° |
| 2026-04-28 08:31 | 0.46280 | 101.57638 | 9864 ft | 321 kts | 0° |
| 2026-04-28 08:31 | 0.48473 | 101.57580 | 9737 ft | 310 kts | 1° |
| 2026-04-28 08:31 | 0.50592 | 101.57526 | 9572 ft | 301 kts | 1° |
| 2026-04-28 08:31 | 0.52675 | 101.57477 | 9227 ft | 298 kts | 1° |
| 2026-04-28 08:32 | 0.54744 | 101.57432 | 8820 ft | 297 kts | 360° |
| 2026-04-28 08:32 | 0.56817 | 101.57272 | 8286 ft | 302 kts | 354° |
| 2026-04-28 08:32 | 0.58904 | 101.57032 | 7874 ft | 301 kts | 354° |
| 2026-04-28 08:32 | 0.60978 | 101.56794 | 7466 ft | 299 kts | 354° |
| 2026-04-28 08:33 | 0.63043 | 101.56558 | 7015 ft | 299 kts | 354° |
| 2026-04-28 08:33 | 0.65084 | 101.56129 | 6510 ft | 301 kts | 336° |
| 2026-04-28 08:33 | 0.66726 | 101.54877 | 6071 ft | 299 kts | 307° |
| 2026-04-28 08:33 | 0.67567 | 101.53013 | 5654 ft | 295 kts | 279° |
| 2026-04-28 08:34 | 0.67826 | 101.50997 | 5245 ft | 292 kts | 276° |
| 2026-04-28 08:34 | 0.68062 | 101.48986 | 4833 ft | 290 kts | 276° |
| 2026-04-28 08:34 | 0.68301 | 101.46999 | 4424 ft | 287 kts | 276° |
| 2026-04-28 08:34 | 0.68540 | 101.45037 | 4132 ft | 280 kts | 276° |
| 2026-04-28 08:35 | 0.68771 | 101.43168 | 4106 ft | 262 kts | 276° |
| 2026-04-28 08:35 | 0.68986 | 101.41425 | 4114 ft | 245 kts | 276° |
| 2026-04-28 08:35 | 0.69252 | 101.39800 | 4115 ft | 232 kts | 287° |
| 2026-04-28 08:35 | 0.69941 | 101.38379 | 4117 ft | 231 kts | 307° |
| 2026-04-28 08:36 | 0.71085 | 101.37273 | 4120 ft | 230 kts | 327° |
| 2026-04-28 08:36 | 0.72550 | 101.36647 | 4117 ft | 230 kts | 349° |
| 2026-04-28 08:36 | 0.74137 | 101.36520 | 4123 ft | 226 kts | 1° |
| 2026-04-28 08:36 | 0.75628 | 101.36761 | 4110 ft | 212 kts | 24° |
| 2026-04-28 08:37 | 0.76848 | 101.37531 | 4116 ft | 207 kts | 43° |
| 2026-04-28 08:37 | 0.77771 | 101.38618 | 4099 ft | 205 kts | 60° |
| 2026-04-28 08:37 | 0.78334 | 101.39914 | 4093 ft | 204 kts | 77° |
| 2026-04-28 08:37 | 0.78489 | 101.41318 | 4092 ft | 203 kts | 94° |
| 2026-04-28 08:38 | 0.78220 | 101.42692 | 4092 ft | 202 kts | 111° |
| 2026-04-28 08:38 | 0.77551 | 101.43922 | 4090 ft | 202 kts | 129° |
| 2026-04-28 08:38 | 0.76510 | 101.44919 | 4099 ft | 218 kts | 146° |
| 2026-04-28 08:38 | 0.75068 | 101.45586 | 4103 ft | 240 kts | 166° |
| 2026-04-28 08:39 | 0.73391 | 101.45751 | 4093 ft | 244 kts | 180° |
| 2026-04-28 08:39 | 0.71690 | 101.45706 | 4090 ft | 245 kts | 182° |
| 2026-04-28 08:39 | 0.69992 | 101.45608 | 4092 ft | 245 kts | 184° |
| 2026-04-28 08:39 | 0.68293 | 101.45497 | 4088 ft | 245 kts | 184° |
| 2026-04-28 08:40 | 0.66598 | 101.45354 | 3902 ft | 244 kts | 185° |
| 2026-04-28 08:40 | 0.64910 | 101.45189 | 3604 ft | 241 kts | 185° |
| 2026-04-28 08:40 | 0.63289 | 101.45027 | 3288 ft | 228 kts | 185° |
| 2026-04-28 08:40 | 0.61754 | 101.44886 | 2993 ft | 215 kts | 183° |
| 2026-04-28 08:41 | 0.60292 | 101.44813 | 2709 ft | 206 kts | 181° |
| 2026-04-28 08:41 | 0.58899 | 101.44773 | 2470 ft | 193 kts | 180° |
| 2026-04-28 08:41 | 0.57609 | 101.44744 | 2213 ft | 179 kts | 180° |
| 2026-04-28 08:41 | 0.56406 | 101.44716 | 1989 ft | 167 kts | 181° |
| 2026-04-28 08:42 | 0.55276 | 101.44689 | 1761 ft | 158 kts | 180° |
| 2026-04-28 08:42 | 0.54189 | 101.44662 | 1568 ft | 155 kts | 181° |
| 2026-04-28 08:42 | 0.53121 | 101.44633 | 1371 ft | 153 kts | 180° |
| 2026-04-28 08:42 | 0.52057 | 101.44604 | 1172 ft | 152 kts | 180° |
| 2026-04-28 08:43 | 0.51001 | 101.44577 | 961 ft | 152 kts | 180° |
| 2026-04-28 08:43 | 0.49950 | 101.44556 | 744 ft | 151 kts | 180° |
| 2026-04-28 08:43 | 0.48899 | 101.44534 | 538 ft | 151 kts | 181° |
| 2026-04-28 08:43 | 0.47854 | 101.44497 | 315 ft | 150 kts | 181° |
| 2026-04-28 08:44 | 0.46824 | 101.44471 | 148 ft | 141 kts | 181° |
| 2026-04-28 08:44 | 0.46068 | 101.44452 | 128 ft | 66 kts | 182° |
| 2026-04-28 08:44 | 0.45901 | 101.44447 | 128 ft | 2 kts | 237° |
| 2026-04-28 08:44 | 0.45955 | 101.44455 | 129 ft | 10 kts | 15° |
| 2026-04-28 08:45 | 0.46022 | 101.44449 | 126 ft | 11 kts | 359° |
| 2026-04-28 08:45 | 0.46148 | 101.44452 | 132 ft | 33 kts | 2° |
| 2026-04-28 08:45 | 0.46346 | 101.44460 | 137 ft | 16 kts | 5° |
| 2026-04-28 08:45 | 0.46385 | 101.44511 | 139 ft | 3 kts | 88° |
| 2026-04-28 08:46 | 0.46386 | 101.44529 | 139 ft | 2 kts | 88° |
| 2026-04-28 08:46 | 0.46399 | 101.44570 | 140 ft | 9 kts | 56° |
| 2026-04-28 08:46 | 0.46433 | 101.44616 | 140 ft | 7 kts | 64° |
| 2026-04-28 08:46 | 0.46433 | 101.44653 | 141 ft | 4 kts | 91° |
| 2026-04-28 08:47 | 0.46433 | 101.44672 | 142 ft | 2 kts | 90° |
| 2026-04-28 08:47 | 0.46433 | 101.44689 | 142 ft | 2 kts | 90° |
| 2026-04-28 08:47 | 0.46433 | 101.44690 | 142 ft | 0 kts | 90° |